Time;durP1;ratioP1;P1;durP2;ratioP2;P2;SDS_P1;SDS_P2;PMS_P1;PMS_P2;Temp;Humidity;BMP_temperature;BMP_pressure;BME280_temperature;BME280_humidity;BME280_pressure;Samples;Min_cycle;Max_cycle;Signal;HPM_P1;HPM_P2
2021/08/17 00:01:13;;;;;;;13.00;7.35;;;18.30;69.00;;;;;;2485695;55;21065;-87
2021/08/17 00:03:40;;;;;;;15.93;8.00;;;18.20;69.00;;;;;;2495399;55;21022;-86
2021/08/17 00:06:07;;;;;;;12.57;7.45;;;18.30;69.30;;;;;;2494429;55;21061;-85
2021/08/17 00:08:33;;;;;;;12.23;7.40;;;18.20;69.20;;;;;;2277291;55;21106;-88
2021/08/17 00:11:00;;;;;;;10.90;6.37;;;18.20;69.30;;;;;;2494630;55;21034;-85
2021/08/17 00:13:26;;;;;;;15.88;7.45;;;18.20;69.50;;;;;;2277831;55;20970;-86
2021/08/17 00:15:53;;;;;;;13.02;7.10;;;18.20;69.60;;;;;;2495438;55;21077;-85
2021/08/17 00:18:19;;;;;;;11.63;7.10;;;18.20;69.60;;;;;;2495942;54;20946;-87
2021/08/17 00:20:46;;;;;;;10.23;6.37;;;18.20;69.80;;;;;;2275150;55;21074;-87
2021/08/17 00:23:12;;;;;;;11.02;6.30;;;18.30;70.00;;;;;;2487446;55;21098;-87
2021/08/17 00:25:42;;;;;;;13.20;7.32;;;18.20;70.00;;;;;;2480108;55;20959;-86
2021/08/17 00:28:10;;;;;;;15.13;7.53;;;18.30;70.10;;;;;;2276676;55;20950;-86
2021/08/17 00:30:37;;;;;;;13.52;7.18;;;18.30;70.00;;;;;;2494763;55;20986;-85
2021/08/17 00:33:03;;;;;;;11.48;6.50;;;18.20;69.80;;;;;;2480321;55;20977;-84
2021/08/17 00:35:29;;;;;;;11.45;6.68;;;18.30;69.90;;;;;;2282584;55;21066;-89
2021/08/17 00:37:56;;;;;;;14.18;7.20;;;18.20;69.80;;;;;;2272967;55;20982;-88
2021/08/17 00:40:22;;;;;;;12.70;7.28;;;18.20;69.90;;;;;;2485745;55;21046;-85
2021/08/17 00:42:48;;;;;;;12.73;7.35;;;18.20;70.00;;;;;;2265059;55;20988;-88
2021/08/17 00:45:22;;;;;;;13.50;7.70;;;18.20;70.00;;;;;;2252507;55;21006;-88
2021/08/17 00:47:55;;;;;;;13.05;7.43;;;18.20;70.00;;;;;;2496484;55;20993;-88
2021/08/17 00:50:29;;;;;;;12.80;7.22;;;18.20;70.10;;;;;;2471647;55;20974;-87
2021/08/17 00:52:58;;;;;;;11.73;7.07;;;18.20;70.80;;;;;;2497498;55;21022;-87
2021/08/17 00:55:26;;;;;;;10.30;6.18;;;18.20;70.00;;;;;;2278673;55;21972;-88
2021/08/17 00:57:52;;;;;;;10.15;5.80;;;18.20;70.00;;;;;;2271737;55;21016;-88
2021/08/17 01:00:18;;;;;;;9.35;5.70;;;18.20;70.00;;;;;;2488333;55;21018;-88
2021/08/17 01:02:45;;;;;;;10.27;5.85;;;18.20;70.10;;;;;;2495510;55;20998;-85
2021/08/17 01:05:13;;;;;;;10.80;5.60;;;18.20;70.20;;;;;;2496332;55;21026;-88
2021/08/17 01:07:41;;;;;;;10.05;5.15;;;18.10;70.10;;;;;;2484128;55;21036;-85
2021/08/17 01:10:09;;;;;;;9.20;5.18;;;18.10;70.10;;;;;;2492808;54;20954;-87
2021/08/17 01:12:36;;;;;;;8.50;5.28;;;18.10;70.00;;;;;;2496841;55;21557;-87
2021/08/17 01:15:03;;;;;;;7.82;4.75;;;18.10;70.00;;;;;;2496324;55;20926;-88
2021/08/17 01:17:29;;;;;;;9.93;5.12;;;18.10;70.10;;;;;;2276984;55;20945;-87
2021/08/17 01:19:56;;;;;;;9.07;5.28;;;18.10;70.00;;;;;;2482773;55;21023;-85
2021/08/17 01:22:22;;;;;;;8.98;4.65;;;18.10;70.00;;;;;;2266811;55;22087;-88
2021/08/17 01:24:49;;;;;;;8.35;4.55;;;18.00;70.00;;;;;;2493518;54;21026;-87
2021/08/17 01:27:15;;;;;;;9.30;4.53;;;18.10;70.10;;;;;;2496380;55;20993;-87
2021/08/17 01:29:41;;;;;;;8.68;4.40;;;18.00;70.10;;;;;;2486034;55;22009;-88
2021/08/17 01:32:12;;;;;;;12.27;5.47;;;18.00;70.10;;;;;;2271927;55;21258;-88
2021/08/17 01:34:39;;;;;;;8.88;4.68;;;18.00;70.10;;;;;;2464506;55;20952;-89
2021/08/17 01:37:06;;;;;;;9.35;5.18;;;18.00;70.10;;;;;;2268039;55;21054;-88
2021/08/17 01:39:32;;;;;;;7.07;3.85;;;18.00;70.10;;;;;;2497067;54;20985;-86
2021/08/17 01:41:58;;;;;;;8.25;4.45;;;18.00;70.20;;;;;;2276849;55;20989;-86
2021/08/17 01:44:24;;;;;;;8.07;4.43;;;17.90;70.10;;;;;;2496145;55;21026;-88
2021/08/17 01:46:51;;;;;;;7.93;4.28;;;17.90;70.10;;;;;;2277004;55;21026;-88
2021/08/17 01:49:18;;;;;;;7.95;4.72;;;17.90;70.10;;;;;;2279793;55;21030;-88
2021/08/17 01:51:45;;;;;;;7.12;4.07;;;17.90;70.10;;;;;;2484025;55;20978;-86
2021/08/17 01:54:12;;;;;;;8.63;4.82;;;17.90;70.20;;;;;;2499083;55;20927;-88
2021/08/17 01:56:38;;;;;;;8.27;4.55;;;17.90;70.30;;;;;;2482087;55;22564;-86
2021/08/17 01:59:05;;;;;;;8.00;4.05;;;17.80;70.20;;;;;;2275739;55;20990;-87
2021/08/17 02:01:31;;;;;;;8.70;4.50;;;17.80;70.20;;;;;;2497240;55;20962;-87
2021/08/17 02:03:58;;;;;;;10.18;4.62;;;17.80;70.20;;;;;;2494918;55;21025;-86
2021/08/17 02:06:24;;;;;;;8.70;4.45;;;17.80;70.30;;;;;;2263229;55;21053;-88
2021/08/17 02:08:50;;;;;;;7.18;4.32;;;17.80;70.30;;;;;;2275456;55;20977;-90
2021/08/17 02:11:17;;;;;;;7.05;3.95;;;17.80;70.30;;;;;;2481433;55;20997;-87
2021/08/17 02:13:43;;;;;;;6.70;3.75;;;17.80;70.30;;;;;;2265641;55;21826;-88
2021/08/17 02:16:09;;;;;;;7.45;4.00;;;17.80;70.30;;;;;;2494006;55;21045;-85
2021/08/17 02:18:35;;;;;;;7.80;4.10;;;17.80;70.30;;;;;;2496430;55;21000;-87
2021/08/17 02:21:02;;;;;;;7.07;4.03;;;17.80;70.30;;;;;;2499010;55;20986;-88
2021/08/17 02:23:29;;;;;;;7.45;4.12;;;17.70;70.30;;;;;;2482876;55;21840;-87
2021/08/17 02:25:55;;;;;;;7.57;3.95;;;17.70;70.30;;;;;;2478578;54;20965;-87
2021/08/17 02:28:22;;;;;;;8.23;4.18;;;17.70;70.30;;;;;;2254936;55;20964;-87
2021/08/17 02:30:48;;;;;;;7.03;3.67;;;17.70;70.30;;;;;;2476054;55;21198;-87
2021/08/17 02:33:15;;;;;;;6.07;3.45;;;17.70;70.30;;;;;;2495115;55;20942;-87
2021/08/17 02:35:42;;;;;;;7.57;4.30;;;17.70;70.30;;;;;;2481685;55;20994;-87
2021/08/17 02:38:09;;;;;;;6.35;3.85;;;17.70;70.30;;;;;;2275844;55;20973;-87
2021/08/17 02:40:35;;;;;;;7.50;3.87;;;17.70;70.30;;;;;;2496588;55;20949;-88
2021/08/17 02:43:01;;;;;;;7.25;3.53;;;17.70;70.30;;;;;;2497627;55;21019;-87
2021/08/17 02:45:27;;;;;;;7.25;3.50;;;17.70;70.30;;;;;;2274780;55;20934;-85
2021/08/17 02:47:57;;;;;;;6.82;3.47;;;17.60;70.20;;;;;;2269931;55;21049;-87
2021/08/17 02:50:24;;;;;;;5.80;3.33;;;17.60;70.10;;;;;;2259942;55;21088;-88
2021/08/17 02:52:50;;;;;;;7.55;4.32;;;17.60;70.00;;;;;;2491383;55;22135;-87
2021/08/17 02:55:17;;;;;;;6.40;3.37;;;17.60;70.10;;;;;;2493192;55;21781;-87
2021/08/17 02:57:54;;;;;;;7.65;3.67;;;17.60;70.10;;;;;;2254196;55;21026;-88
2021/08/17 03:00:20;;;;;;;5.62;3.03;;;17.60;69.90;;;;;;2275609;55;20954;-87
2021/08/17 03:02:47;;;;;;;5.60;2.83;;;17.50;69.90;;;;;;2258099;55;21800;-88
2021/08/17 03:05:13;;;;;;;6.40;3.58;;;17.50;69.80;;;;;;2495456;55;21592;-88
2021/08/17 03:07:54;;;;;;;7.65;4.20;;;17.40;69.60;;;;;;2496580;55;21816;-88
2021/08/17 03:10:21;;;;;;;6.57;3.12;;;17.40;69.50;;;;;;2276156;55;21894;-87
2021/08/17 03:12:47;;;;;;;5.35;3.10;;;17.40;69.60;;;;;;2477276;55;21071;-86
2021/08/17 03:15:13;;;;;;;5.97;3.15;;;17.30;69.60;;;;;;2496855;55;20994;-88
2021/08/17 03:17:40;;;;;;;5.82;3.30;;;17.30;69.50;;;;;;2266633;55;21025;-88
2021/08/17 03:20:07;;;;;;;5.50;2.92;;;17.30;70.20;;;;;;2279570;55;20978;-86
2021/08/17 03:22:33;;;;;;;7.05;3.05;;;17.20;69.30;;;;;;2482477;55;20966;-85
2021/08/17 03:24:59;;;;;;;6.03;3.30;;;17.20;69.40;;;;;;2495411;55;21002;-88
2021/08/17 03:27:26;;;;;;;5.62;3.03;;;17.10;69.20;;;;;;2279049;55;20986;-87
2021/08/17 03:29:52;;;;;;;5.82;2.95;;;17.10;69.20;;;;;;2494518;55;21029;-86
2021/08/17 03:32:19;;;;;;;6.28;2.67;;;17.00;69.10;;;;;;2278665;55;21286;-87
2021/08/17 03:34:45;;;;;;;6.15;3.33;;;17.00;69.20;;;;;;2284066;55;21592;-86
2021/08/17 03:37:11;;;;;;;6.07;3.08;;;17.00;69.20;;;;;;2487319;55;20975;-85
2021/08/17 03:39:37;;;;;;;6.03;3.05;;;16.90;69.10;;;;;;2496915;55;21742;-86
2021/08/17 03:42:04;;;;;;;5.95;3.00;;;16.90;69.10;;;;;;2276083;55;20998;-86
2021/08/17 03:44:30;;;;;;;7.12;3.42;;;16.80;69.00;;;;;;2483098;55;20964;-87
2021/08/17 03:46:56;;;;;;;6.68;3.30;;;16.80;69.00;;;;;;2479151;55;21007;-87
2021/08/17 03:49:23;;;;;;;7.28;2.95;;;16.70;68.90;;;;;;2495955;55;21033;-87
2021/08/17 03:51:49;;;;;;;5.07;2.70;;;16.70;68.90;;;;;;2265333;55;21003;-86
2021/08/17 03:54:15;;;;;;;5.43;2.80;;;16.60;68.90;;;;;;2495839;55;20986;-87
2021/08/17 03:56:41;;;;;;;7.12;3.15;;;16.60;69.00;;;;;;2482403;55;21382;-88
2021/08/17 03:59:08;;;;;;;6.20;3.20;;;16.60;69.00;;;;;;2275122;55;22130;-86
2021/08/17 04:01:34;;;;;;;6.20;3.47;;;16.50;69.00;;;;;;2279968;55;20938;-86
2021/08/17 04:04:00;;;;;;;7.72;3.70;;;16.50;69.00;;;;;;2495464;55;21459;-87
2021/08/17 04:06:27;;;;;;;6.87;3.50;;;16.40;68.90;;;;;;2495799;55;20993;-87
2021/08/17 04:08:53;;;;;;;6.87;3.53;;;16.30;68.90;;;;;;2263998;55;21077;-86
2021/08/17 04:11:19;;;;;;;6.82;3.67;;;16.30;68.90;;;;;;2494528;55;21001;-90
2021/08/17 04:13:45;;;;;;;6.15;3.40;;;16.30;69.10;;;;;;2273105;55;20962;-85
2021/08/17 04:16:12;;;;;;;7.50;3.58;;;16.20;69.00;;;;;;2496465;55;20990;-86
2021/08/17 04:18:38;;;;;;;6.50;3.45;;;16.20;69.10;;;;;;2494953;55;21081;-88
2021/08/17 04:21:04;;;;;;;6.50;3.15;;;16.20;69.20;;;;;;2274065;55;21006;-87
2021/08/17 04:23:31;;;;;;;7.78;3.60;;;16.10;69.20;;;;;;2483219;55;21585;-86
2021/08/17 04:25:58;;;;;;;5.65;3.15;;;16.10;69.90;;;;;;2492294;55;21068;-87
2021/08/17 04:28:24;;;;;;;6.40;3.30;;;16.10;69.20;;;;;;2268537;55;21057;-85
2021/08/17 04:30:50;;;;;;;5.80;2.95;;;16.10;69.20;;;;;;2469084;55;20963;-84
2021/08/17 04:33:17;;;;;;;6.45;3.25;;;16.00;69.20;;;;;;2277962;55;20970;-86
2021/08/17 04:35:43;;;;;;;6.55;3.62;;;16.00;69.20;;;;;;2276733;55;20985;-86
2021/08/17 04:38:09;;;;;;;6.25;3.15;;;16.00;69.30;;;;;;2284876;55;21043;-86
2021/08/17 04:40:36;;;;;;;5.70;3.10;;;16.00;69.30;;;;;;2279163;55;21001;-86
2021/08/17 04:43:02;;;;;;;6.82;3.42;;;15.90;69.30;;;;;;2276074;55;20966;-85
2021/08/17 04:45:28;;;;;;;7.40;3.72;;;15.90;69.40;;;;;;2274792;55;21321;-86
2021/08/17 04:47:55;;;;;;;6.40;3.33;;;15.90;69.40;;;;;;2280535;55;21097;-86
2021/08/17 04:50:24;;;;;;;6.90;3.78;;;15.90;69.40;;;;;;2497033;55;21050;-86
2021/08/17 04:52:51;;;;;;;7.22;3.75;;;15.90;69.50;;;;;;2275633;55;20926;-85
2021/08/17 04:55:17;;;;;;;6.80;3.83;;;15.90;69.60;;;;;;2486274;55;21006;-85
2021/08/17 04:57:54;;;;;;;7.32;4.18;;;15.80;69.50;;;;;;2487158;55;20972;-86
2021/08/17 05:00:21;;;;;;;6.20;3.50;;;15.80;69.60;;;;;;2463913;55;20988;-85
2021/08/17 05:02:48;;;;;;;7.05;3.78;;;15.80;69.80;;;;;;2497394;55;20998;-85
2021/08/17 05:05:15;;;;;;;7.15;3.75;;;15.80;69.90;;;;;;2485549;55;21795;-84
2021/08/17 05:07:41;;;;;;;7.12;3.05;;;15.80;70.00;;;;;;2263973;55;20961;-86
2021/08/17 05:10:09;;;;;;;5.50;2.87;;;15.90;70.20;;;;;;2280518;55;20963;-86
2021/08/17 05:12:35;;;;;;;6.65;3.45;;;15.80;70.10;;;;;;2459464;55;20993;-84
2021/08/17 05:15:03;;;;;;;7.82;3.53;;;15.80;70.20;;;;;;2498224;55;21036;-86
2021/08/17 05:17:39;;;;;;;7.22;3.10;;;15.80;70.10;;;;;;2496808;55;20982;-84
2021/08/17 05:20:08;;;;;;;6.12;3.20;;;15.80;70.10;;;;;;2484480;55;20930;-84
2021/08/17 05:22:35;;;;;;;5.78;3.05;;;15.80;70.10;;;;;;2256762;55;21010;-85
2021/08/17 05:25:01;;;;;;;6.07;3.35;;;15.80;70.10;;;;;;2499443;54;20997;-86
2021/08/17 05:27:28;;;;;;;6.20;3.05;;;15.80;70.10;;;;;;2481310;55;20942;-84
2021/08/17 05:29:55;;;;;;;5.40;3.03;;;15.80;70.20;;;;;;2497274;55;20939;-85
2021/08/17 05:32:22;;;;;;;7.10;3.78;;;15.80;70.30;;;;;;2280213;55;20997;-87
2021/08/17 05:34:48;;;;;;;7.28;3.47;;;15.80;70.30;;;;;;2472239;55;20974;-85
2021/08/17 05:37:14;;;;;;;7.18;3.87;;;15.80;70.40;;;;;;2491066;55;21062;-87
2021/08/17 05:39:44;;;;;;;7.53;3.35;;;15.80;70.50;;;;;;2497421;55;21141;-87
2021/08/17 05:42:10;;;;;;;4.80;2.53;;;15.80;70.50;;;;;;2274826;55;20942;-87
2021/08/17 05:44:38;;;;;;;6.32;3.20;;;15.80;70.70;;;;;;2497535;55;20973;-86
2021/08/17 05:47:04;;;;;;;7.43;3.08;;;15.80;70.80;;;;;;2263595;55;20997;-85
2021/08/17 05:49:31;;;;;;;6.15;3.05;;;15.80;70.90;;;;;;2497526;55;20946;-85
2021/08/17 05:51:57;;;;;;;6.28;3.15;;;15.90;71.10;;;;;;2283357;55;20998;-84
2021/08/17 05:54:23;;;;;;;5.75;2.28;;;15.90;71.20;;;;;;2496510;55;21885;-85
2021/08/17 05:56:51;;;;;;;4.75;2.47;;;16.00;71.40;;;;;;2276056;55;20962;-86
2021/08/17 05:59:17;;;;;;;6.10;3.03;;;16.00;71.50;;;;;;2496851;55;20974;-85
2021/08/17 06:01:43;;;;;;;6.25;2.97;;;16.00;71.40;;;;;;2496325;55;21030;-85
2021/08/17 06:04:10;;;;;;;5.82;2.87;;;16.10;71.50;;;;;;2280570;55;21030;-87
2021/08/17 06:06:36;;;;;;;8.90;3.40;;;16.10;71.50;;;;;;2499300;55;21003;-84
2021/08/17 06:09:02;;;;;;;6.87;3.17;;;16.10;71.50;;;;;;2498690;55;21368;-86
2021/08/17 06:11:29;;;;;;;5.28;2.65;;;16.20;71.70;;;;;;2281052;55;20994;-87
2021/08/17 06:13:55;;;;;;;5.70;2.35;;;16.30;71.80;;;;;;2499100;55;21006;-86
2021/08/17 06:16:21;;;;;;;7.35;3.28;;;16.30;72.00;;;;;;2277232;55;20990;-85
2021/08/17 06:18:48;;;;;;;5.85;2.70;;;16.30;72.10;;;;;;2496663;55;21005;-86
2021/08/17 06:21:14;;;;;;;5.37;2.58;;;16.40;72.30;;;;;;2482906;55;21022;-84
2021/08/17 06:23:40;;;;;;;4.87;2.62;;;16.40;72.40;;;;;;2484092;55;20962;-87
2021/08/17 06:26:06;;;;;;;5.47;2.55;;;16.50;72.70;;;;;;2498744;55;20994;-86
2021/08/17 06:28:33;;;;;;;7.75;2.60;;;16.60;72.90;;;;;;2486225;55;20978;-84
2021/08/17 06:30:59;;;;;;;5.43;2.87;;;16.60;72.90;;;;;;2498084;55;21022;-87
2021/08/17 06:33:26;;;;;;;5.28;2.50;;;16.70;72.90;;;;;;2500040;55;21098;-86
2021/08/17 06:35:57;;;;;;;6.00;2.70;;;16.80;73.10;;;;;;2277494;55;21063;-87
2021/08/17 06:38:24;;;;;;;5.87;2.62;;;16.90;73.20;;;;;;2484179;55;21573;-86
2021/08/17 06:40:50;;;;;;;5.62;2.95;;;17.00;74.00;;;;;;2280300;55;22340;-86
2021/08/17 06:43:17;;;;;;;6.45;3.70;;;17.10;73.40;;;;;;2491743;55;20978;-86
2021/08/17 06:45:43;;;;;;;6.30;2.60;;;17.20;73.30;;;;;;2490755;55;21026;-85
2021/08/17 06:48:09;;;;;;;4.50;2.08;;;17.30;73.20;;;;;;2498849;55;22171;-86
2021/08/17 06:50:39;;;;;;;5.95;2.60;;;17.30;73.20;;;;;;2266032;55;21026;-86
2021/08/17 06:53:06;;;;;;;5.57;2.58;;;17.40;73.20;;;;;;2275100;55;21047;-86
2021/08/17 06:55:32;;;;;;;6.18;2.85;;;17.50;73.30;;;;;;2275216;55;21047;-85
2021/08/17 06:57:58;;;;;;;6.03;2.72;;;17.60;73.40;;;;;;2277872;55;20910;-86
2021/08/17 07:00:28;;;;;;;6.20;3.28;;;17.70;73.40;;;;;;2276327;55;21041;-87
2021/08/17 07:02:54;;;;;;;5.75;2.97;;;17.80;73.50;;;;;;2498550;55;20992;-85
2021/08/17 07:05:27;;;;;;;7.07;3.45;;;17.90;73.50;;;;;;2496700;55;21844;-87
2021/08/17 07:07:53;;;;;;;6.00;3.03;;;18.00;73.30;;;;;;2280433;55;20942;-85
2021/08/17 07:10:20;;;;;;;6.80;3.72;;;18.10;73.30;;;;;;2495857;55;21281;-86
2021/08/17 07:12:49;;;;;;;6.20;3.15;;;18.10;73.20;;;;;;2495328;55;21037;-86
2021/08/17 07:15:15;;;;;;;5.03;2.67;;;18.20;73.20;;;;;;2485116;55;21597;-86
2021/08/17 07:17:41;;;;;;;6.37;3.37;;;18.30;73.10;;;;;;2488007;55;21726;-83
2021/08/17 07:20:08;;;;;;;7.80;3.67;;;18.40;73.00;;;;;;2484252;55;21515;-84
2021/08/17 07:22:35;;;;;;;7.82;3.78;;;18.50;72.80;;;;;;2483014;55;20980;-84
2021/08/17 07:25:02;;;;;;;6.87;3.85;;;18.50;72.60;;;;;;2483944;55;21061;-85
2021/08/17 07:27:28;;;;;;;5.85;2.97;;;18.60;72.40;;;;;;2489386;55;20966;-84
2021/08/17 07:29:54;;;;;;;6.82;3.65;;;18.60;72.40;;;;;;2463216;55;21151;-86
2021/08/17 07:32:21;;;;;;;6.43;3.33;;;18.70;72.40;;;;;;2494424;55;21101;-88
2021/08/17 07:34:47;;;;;;;6.12;3.40;;;18.70;72.30;;;;;;2494218;55;21441;-87
2021/08/17 07:37:13;;;;;;;6.72;3.42;;;18.80;72.40;;;;;;2262572;55;20994;-89
2021/08/17 07:39:40;;;;;;;6.97;3.53;;;18.90;72.40;;;;;;2484543;55;21040;-89
2021/08/17 07:42:06;;;;;;;5.97;3.22;;;19.00;72.50;;;;;;2490960;55;22062;-87
2021/08/17 07:44:34;;;;;;;5.20;3.05;;;19.00;73.00;;;;;;2492541;55;20957;-89
2021/08/17 07:47:01;;;;;;;6.12;3.70;;;19.20;73.60;;;;;;2279315;55;21073;-89
2021/08/17 07:49:27;;;;;;;9.30;3.97;;;19.30;73.30;;;;;;2259515;55;20999;-86
2021/08/17 07:51:54;;;;;;;8.20;4.20;;;19.50;73.10;;;;;;2489652;55;21012;-86
2021/08/17 07:54:20;;;;;;;8.23;4.20;;;19.60;72.20;;;;;;2467896;55;21022;-87
2021/08/17 07:56:47;;;;;;;7.07;3.83;;;19.70;71.60;;;;;;2491763;55;21579;-89
2021/08/17 07:59:14;;;;;;;6.82;3.33;;;19.70;71.20;;;;;;2466080;55;21102;-85
2021/08/17 08:01:40;;;;;;;5.50;3.10;;;19.80;71.10;;;;;;2490757;55;20978;-87
2021/08/17 08:04:06;;;;;;;6.93;3.85;;;19.90;71.00;;;;;;2494211;55;21852;-87
2021/08/17 08:06:32;;;;;;;7.68;4.07;;;19.90;70.70;;;;;;2275672;55;21636;-88
2021/08/17 08:08:59;;;;;;;6.70;3.78;;;20.00;70.00;;;;;;2496020;55;21050;-87
2021/08/17 08:11:25;;;;;;;8.27;3.95;;;20.00;69.70;;;;;;2482467;55;20953;-87
2021/08/17 08:13:52;;;;;;;6.18;3.47;;;20.00;70.00;;;;;;2496797;55;21508;-87
2021/08/17 08:16:18;;;;;;;6.32;3.58;;;20.10;69.90;;;;;;2492339;55;21036;-89
2021/08/17 08:18:45;;;;;;;6.03;3.15;;;20.10;69.80;;;;;;2280754;55;21013;-88
2021/08/17 08:21:13;;;;;;;5.93;3.25;;;20.10;69.80;;;;;;2490573;55;21063;-87
2021/08/17 08:23:39;;;;;;;6.32;3.33;;;20.20;70.00;;;;;;2491139;55;20988;-88
2021/08/17 08:26:05;;;;;;;6.85;3.80;;;20.20;70.00;;;;;;2464599;55;20925;-86
2021/08/17 08:28:32;;;;;;;8.23;4.25;;;20.30;69.80;;;;;;2462872;55;20968;-87
2021/08/17 08:30:58;;;;;;;6.40;3.83;;;20.30;69.30;;;;;;2494563;55;21505;-85
2021/08/17 08:33:24;;;;;;;6.53;3.83;;;20.30;68.90;;;;;;2480961;55;21543;-87
2021/08/17 08:35:51;;;;;;;6.37;3.60;;;20.50;69.10;;;;;;2259800;55;20964;-87
2021/08/17 08:38:17;;;;;;;8.10;3.90;;;20.40;69.00;;;;;;2240265;55;20967;-89
2021/08/17 08:40:44;;;;;;;6.87;3.60;;;20.40;68.90;;;;;;2461740;55;20987;-86
2021/08/17 08:43:11;;;;;;;5.45;3.10;;;20.50;68.80;;;;;;2466102;55;21020;-85
2021/08/17 08:45:38;;;;;;;9.65;4.62;;;20.50;68.70;;;;;;2486425;55;20984;-85
2021/08/17 08:48:05;;;;;;;7.00;4.15;;;20.50;68.60;;;;;;2477606;55;21073;-85
2021/08/17 08:50:33;;;;;;;7.78;4.40;;;20.50;68.30;;;;;;2249592;55;21843;-85
2021/08/17 08:52:59;;;;;;;8.55;4.95;;;20.60;68.00;;;;;;2460798;55;20976;-85
2021/08/17 08:55:26;;;;;;;8.70;4.55;;;20.60;68.00;;;;;;2263877;55;21025;-89
2021/08/17 08:57:53;;;;;;;9.02;4.50;;;20.60;68.00;;;;;;2462230;55;20997;-87
2021/08/17 09:00:19;;;;;;;7.55;3.83;;;20.60;68.00;;;;;;2241060;55;22184;-88
2021/08/17 09:02:48;;;;;;;7.68;4.55;;;20.70;68.10;;;;;;2241555;55;21079;-88
2021/08/17 09:05:14;;;;;;;7.50;4.72;;;20.70;67.80;;;;;;2463442;55;21016;-88
2021/08/17 09:07:42;;;;;;;8.02;4.35;;;20.70;67.50;;;;;;2463040;55;21000;-86
2021/08/17 09:10:11;;;;;;;8.27;4.78;;;20.70;67.50;;;;;;2277401;55;22007;-89
2021/08/17 09:12:39;;;;;;;9.02;5.18;;;20.70;67.40;;;;;;2476625;55;20991;-87
2021/08/17 09:15:17;;;;;;;7.37;4.12;;;20.80;67.50;;;;;;2257744;55;20928;-87
2021/08/17 09:19:37;;;;;;;8.68;5.07;;;20.80;67.50;;;;;;2241693;55;20976;-87
2021/08/17 09:22:25;;;;;;;8.68;4.82;;;20.90;67.90;;;;;;2461558;55;20976;-86
2021/08/17 09:24:53;;;;;;;9.40;4.85;;;21.00;66.40;;;;;;2468204;55;20999;-87
2021/08/17 09:27:29;;;;;;;8.10;4.75;;;21.00;68.10;;;;;;2261205;55;22096;-84
2021/08/17 09:30:10;;;;;;;7.55;4.53;;;21.10;67.50;;;;;;2463066;55;21079;-86
2021/08/17 09:32:57;;;;;;;7.05;4.20;;;21.10;67.10;;;;;;2245357;55;20948;-87
2021/08/17 09:35:25;;;;;;;7.82;4.12;;;21.20;66.40;;;;;;2265154;55;20979;-84
2021/08/17 09:38:07;;;;;;;7.60;4.47;;;21.20;67.50;;;;;;2254745;55;20983;-88
2021/08/17 09:40:33;;;;;;;7.93;4.57;;;21.20;66.50;;;;;;2235893;55;21014;-87
2021/08/17 09:43:19;;;;;;;9.13;5.07;;;21.30;67.10;;;;;;2263875;55;20955;-88
2021/08/17 09:45:46;;;;;;;7.95;4.68;;;21.30;65.60;;;;;;2460537;55;20967;-87
2021/08/17 09:48:13;;;;;;;8.45;4.65;;;21.30;66.90;;;;;;2239532;55;21032;-87
2021/08/17 09:50:41;;;;;;;9.00;5.10;;;21.30;67.20;;;;;;2239620;55;21024;-85
2021/08/17 09:53:18;;;;;;;8.77;5.25;;;21.30;66.50;;;;;;2460533;55;20944;-86
2021/08/17 09:55:55;;;;;;;9.43;5.32;;;21.40;65.70;;;;;;2459498;55;21000;-87
2021/08/17 09:58:37;;;;;;;8.70;5.10;;;21.40;65.00;;;;;;2460233;55;20996;-86
2021/08/17 10:01:05;;;;;;;8.15;4.93;;;21.50;65.20;;;;;;2440331;55;20992;-87
2021/08/17 10:03:32;;;;;;;8.90;4.43;;;21.40;66.10;;;;;;2460000;55;21012;-87
2021/08/17 10:05:58;;;;;;;8.07;4.70;;;21.50;66.20;;;;;;2239038;55;20940;-87
2021/08/17 10:08:29;;;;;;;9.35;4.93;;;21.50;66.10;;;;;;2480013;54;21094;-85
2021/08/17 10:10:56;;;;;;;7.75;4.37;;;21.50;65.70;;;;;;2267137;55;20982;-88
2021/08/17 10:13:23;;;;;;;7.97;4.68;;;21.50;66.00;;;;;;2480966;55;20987;-86
2021/08/17 10:15:50;;;;;;;8.23;4.75;;;21.60;66.20;;;;;;2253092;55;20954;-86
2021/08/17 10:18:18;;;;;;;8.55;5.20;;;21.60;66.20;;;;;;2483342;55;20954;-86
2021/08/17 10:20:46;;;;;;;8.27;4.70;;;21.60;66.10;;;;;;2462238;55;20956;-85
2021/08/17 10:23:14;;;;;;;8.95;4.93;;;21.70;66.20;;;;;;2478173;55;21879;-86
2021/08/17 10:25:45;;;;;;;8.20;4.82;;;21.80;66.20;;;;;;2252564;55;20993;-87
2021/08/17 10:28:37;;;;;;;9.98;5.40;;;21.80;65.90;;;;;;2462915;55;20953;-87
2021/08/17 10:32:05;;;;;;;10.77;5.57;;;21.90;64.60;;;;;;2241300;55;20826;-86
2021/08/17 10:34:36;;;;;;;8.93;5.12;;;22.00;64.20;;;;;;2462569;55;20960;-86
2021/08/17 10:37:21;;;;;;;9.32;5.60;;;22.10;65.50;;;;;;2468396;55;20960;-86
2021/08/17 10:39:47;;;;;;;7.93;4.82;;;22.20;64.30;;;;;;2486627;55;20960;-86
2021/08/17 10:42:22;;;;;;;10.73;5.50;;;22.20;66.10;;;;;;2463616;55;21009;-86
2021/08/17 10:44:48;;;;;;;8.45;4.53;;;22.30;65.00;;;;;;2241322;55;20923;-87
2021/08/17 10:47:29;;;;;;;9.30;5.80;;;22.30;65.70;;;;;;2464109;55;20964;-87
2021/08/17 10:49:56;;;;;;;9.25;5.45;;;22.40;64.50;;;;;;2463691;55;20976;-84
2021/08/17 10:52:55;;;;;;;8.38;4.65;;;22.40;65.60;;;;;;2462574;55;20924;-86
2021/08/17 10:55:33;;;;;;;8.18;4.50;;;22.50;64.10;;;;;;2257009;55;20978;-88
2021/08/17 10:58:12;;;;;;;8.82;4.82;;;22.60;65.00;;;;;;2268157;55;21021;-87
2021/08/17 11:00:49;;;;;;;8.73;4.80;;;22.60;64.00;;;;;;2483969;55;20964;-86
2021/08/17 11:03:35;;;;;;;9.25;5.25;;;22.70;64.70;;;;;;2241525;55;20957;-85
2021/08/17 11:06:01;;;;;;;9.40;5.47;;;22.70;65.30;;;;;;2459251;55;20951;-85
2021/08/17 11:08:46;;;;;;;9.13;5.28;;;22.80;65.40;;;;;;2258467;55;20974;-87
2021/08/17 11:11:21;;;;;;;9.32;5.75;;;22.80;63.60;;;;;;2481209;55;21526;-87
2021/08/17 11:14:06;;;;;;;9.15;5.00;;;22.90;63.90;;;;;;2473224;55;20980;-85
2021/08/17 11:16:33;;;;;;;8.48;4.85;;;23.00;63.50;;;;;;2460908;55;20992;-84
2021/08/17 11:19:02;;;;;;;9.63;5.10;;;23.10;65.20;;;;;;2492554;54;21006;-84
2021/08/17 11:21:33;;;;;;;9.50;5.28;;;23.20;65.40;;;;;;2269128;55;20941;-84
2021/08/17 11:27:44;;;;;;;8.73;5.35;;;23.20;64.30;;;;;;2270577;55;20990;-85
2021/08/17 11:30:24;;;;;;;9.88;5.10;;;23.50;62.80;;;;;;2278786;55;21030;-87
2021/08/17 11:32:56;;;;;;;9.50;5.40;;;23.50;61.80;;;;;;2482999;55;20980;-87
2021/08/17 11:35:23;;;;;;;9.57;5.85;;;23.60;61.50;;;;;;2482369;55;20954;-88
2021/08/17 11:37:50;;;;;;;8.48;5.00;;;23.60;62.70;;;;;;2241599;55;20952;-88
2021/08/17 11:40:18;;;;;;;8.95;4.90;;;23.70;62.80;;;;;;2462188;55;20933;-85
2021/08/17 11:42:49;;;;;;;8.50;5.12;;;23.70;63.10;;;;;;2467710;55;20992;-88
2021/08/17 11:46:23;;;;;;;8.60;5.10;;;23.80;62.00;;;;;;2463315;55;20955;-91
2021/08/17 11:48:49;;;;;;;;;;;23.90;61.60;;;;;;2279169;55;21006;-83
2021/08/17 11:51:15;;;;;;;8.52;4.72;;;24.00;62.20;;;;;;2491777;55;20679;-82
2021/08/17 11:53:41;;;;;;;8.65;5.43;;;24.10;63.80;;;;;;2267135;55;21047;-85
2021/08/17 11:56:17;;;;;;;8.70;4.65;;;24.20;63.10;;;;;;2459311;55;21407;-89
2021/08/17 11:58:43;;;;;;;7.97;5.12;;;24.30;61.90;;;;;;2463150;55;21007;-86
2021/08/17 12:01:10;;;;;;;8.23;5.00;;;24.20;62.60;;;;;;2255024;55;20951;-90
2021/08/17 12:03:37;;;;;;;9.23;5.70;;;24.30;62.80;;;;;;2262054;55;21016;-89
2021/08/17 12:06:10;;;;;;;9.68;5.82;;;24.30;62.80;;;;;;2484386;55;21035;-86
2021/08/17 12:08:38;;;;;;;10.05;5.50;;;24.30;61.90;;;;;;2479816;55;21926;-88
2021/08/17 12:11:04;;;;;;;9.85;5.28;;;24.40;62.70;;;;;;2260462;55;21026;-86
2021/08/17 12:13:48;;;;;;;7.85;5.10;;;24.50;62.40;;;;;;2259055;55;21139;-85
2021/08/17 12:16:18;;;;;;;8.00;5.07;;;24.60;61.00;;;;;;2474262;55;20993;-88
2021/08/17 12:18:53;;;;;;;10.23;5.90;;;24.60;62.00;;;;;;2257940;55;21111;-83
2021/08/17 12:21:22;;;;;;;9.48;5.47;;;24.70;60.10;;;;;;2239779;55;21105;-88
2021/08/17 12:23:48;;;;;;;7.82;4.57;;;24.80;60.80;;;;;;2461991;55;21022;-87
2021/08/17 12:26:19;;;;;;;10.52;6.15;;;24.80;61.60;;;;;;2485792;55;21075;-88
2021/08/17 12:28:51;;;;;;;9.55;6.10;;;24.90;61.00;;;;;;2499752;54;21107;-86
2021/08/17 12:31:31;;;;;;;8.73;5.70;;;24.90;60.00;;;;;;2488043;55;21093;-87
2021/08/17 12:35:00;;;;;;;10.02;5.62;;;24.90;60.00;;;;;;2265984;55;20989;-88
2021/08/17 12:37:38;;;;;;;8.43;4.78;;;24.90;60.30;;;;;;2248327;55;21026;-86
2021/08/17 12:40:12;;;;;;;6.95;4.40;;;25.00;59.50;;;;;;2482141;55;20968;-84
2021/08/17 12:42:40;;;;;;;11.15;5.78;;;24.90;60.90;;;;;;2460616;55;20995;-86
2021/08/17 12:45:07;;;;;;;9.70;5.95;;;25.00;60.00;;;;;;2238994;55;20972;-86
2021/08/17 12:47:33;;;;;;;8.80;5.62;;;25.00;60.00;;;;;;2478609;55;20958;-87
2021/08/17 12:50:16;;;;;;;8.32;5.00;;;25.00;60.00;;;;;;2478607;54;21618;-85
2021/08/17 12:52:42;;;;;;;9.32;5.20;;;25.00;60.10;;;;;;2265432;55;21077;-84
2021/08/17 12:55:19;;;;;;;8.05;4.80;;;24.90;60.20;;;;;;2471291;55;21272;-85
2021/08/17 12:57:54;;;;;;;8.00;5.22;;;25.00;59.80;;;;;;2489052;55;20981;-85
2021/08/17 13:00:23;;;;;;;8.68;5.35;;;25.10;59.40;;;;;;2475746;55;21014;-85